sensor_id;sensor_type;location;lat;lon;timestamp;temperature;humidity
790;DHT22;378;48.844;9.156;2022-07-23T00:01:59;25.30;99.90
790;DHT22;378;48.844;9.156;2022-07-23T00:04:27;25.30;99.90
790;DHT22;378;48.844;9.156;2022-07-23T00:06:55;25.20;99.90
790;DHT22;378;48.844;9.156;2022-07-23T00:09:24;25.10;99.90
790;DHT22;378;48.844;9.156;2022-07-23T00:11:54;25.00;99.90
790;DHT22;378;48.844;9.156;2022-07-23T00:14:23;25.00;99.90
790;DHT22;378;48.844;9.156;2022-07-23T00:16:53;25.00;99.90
790;DHT22;378;48.844;9.156;2022-07-23T00:19:20;25.00;99.90
790;DHT22;378;48.844;9.156;2022-07-23T00:21:47;25.00;99.90
790;DHT22;378;48.844;9.156;2022-07-23T00:24:14;24.90;99.90
790;DHT22;378;48.844;9.156;2022-07-23T00:26:41;24.90;99.90
790;DHT22;378;48.844;9.156;2022-07-23T00:29:07;24.90;99.90
790;DHT22;378;48.844;9.156;2022-07-23T00:31:34;24.80;99.90
790;DHT22;378;48.844;9.156;2022-07-23T00:34:03;24.80;99.90
790;DHT22;378;48.844;9.156;2022-07-23T00:36:30;24.70;99.90
790;DHT22;378;48.844;9.156;2022-07-23T00:38:57;24.80;99.90
790;DHT22;378;48.844;9.156;2022-07-23T00:41:24;24.70;99.90
790;DHT22;378;48.844;9.156;2022-07-23T00:43:51;24.70;99.90
790;DHT22;378;48.844;9.156;2022-07-23T00:46:19;24.70;99.90
790;DHT22;378;48.844;9.156;2022-07-23T00:48:46;24.60;99.90
790;DHT22;378;48.844;9.156;2022-07-23T00:51:15;24.60;99.90
790;DHT22;378;48.844;9.156;2022-07-23T00:53:43;24.50;99.90
790;DHT22;378;48.844;9.156;2022-07-23T00:56:11;24.40;99.90
790;DHT22;378;48.844;9.156;2022-07-23T00:58:39;24.40;99.90
790;DHT22;378;48.844;9.156;2022-07-23T01:01:09;24.30;99.90
790;DHT22;378;48.844;9.156;2022-07-23T01:03:36;24.20;99.90
790;DHT22;378;48.844;9.156;2022-07-23T01:06:03;24.20;99.90
790;DHT22;378;48.844;9.156;2022-07-23T01:08:31;24.20;99.90
790;DHT22;378;48.844;9.156;2022-07-23T01:10:58;24.20;99.90
790;DHT22;378;48.844;9.156;2022-07-23T01:13:25;24.20;99.90
790;DHT22;378;48.844;9.156;2022-07-23T01:15:52;24.20;99.90
790;DHT22;378;48.844;9.156;2022-07-23T01:18:18;24.10;99.90
790;DHT22;378;48.844;9.156;2022-07-23T01:20:45;24.10;99.90
790;DHT22;378;48.844;9.156;2022-07-23T01:23:13;24.10;99.90
790;DHT22;378;48.844;9.156;2022-07-23T01:25:47;24.10;99.90
790;DHT22;378;48.844;9.156;2022-07-23T01:28:14;24.00;99.90
790;DHT22;378;48.844;9.156;2022-07-23T01:30:42;24.00;99.90
790;DHT22;378;48.844;9.156;2022-07-23T01:33:09;24.00;99.90
790;DHT22;378;48.844;9.156;2022-07-23T01:35:35;24.00;99.90
790;DHT22;378;48.844;9.156;2022-07-23T01:38:02;24.00;99.90
790;DHT22;378;48.844;9.156;2022-07-23T01:40:30;23.90;99.90
790;DHT22;378;48.844;9.156;2022-07-23T01:42:57;23.90;99.90
790;DHT22;378;48.844;9.156;2022-07-23T01:45:24;23.90;99.90
790;DHT22;378;48.844;9.156;2022-07-23T01:47:51;23.80;99.90
790;DHT22;378;48.844;9.156;2022-07-23T01:50:18;23.80;99.90
790;DHT22;378;48.844;9.156;2022-07-23T01:52:45;23.70;99.90
790;DHT22;378;48.844;9.156;2022-07-23T01:55:12;23.70;99.90
790;DHT22;378;48.844;9.156;2022-07-23T01:57:40;23.70;99.90
790;DHT22;378;48.844;9.156;2022-07-23T02:00:08;23.60;99.90
790;DHT22;378;48.844;9.156;2022-07-23T02:02:35;23.50;99.90
790;DHT22;378;48.844;9.156;2022-07-23T02:05:02;23.40;99.90
790;DHT22;378;48.844;9.156;2022-07-23T02:07:29;23.40;99.90
790;DHT22;378;48.844;9.156;2022-07-23T02:09:56;23.30;99.90
790;DHT22;378;48.844;9.156;2022-07-23T02:12:23;23.30;99.90
790;DHT22;378;48.844;9.156;2022-07-23T02:14:51;23.20;99.90
790;DHT22;378;48.844;9.156;2022-07-23T02:17:18;23.20;99.90
790;DHT22;378;48.844;9.156;2022-07-23T02:19:44;23.20;99.90
790;DHT22;378;48.844;9.156;2022-07-23T02:22:11;23.10;99.90
790;DHT22;378;48.844;9.156;2022-07-23T02:24:38;23.10;99.90
790;DHT22;378;48.844;9.156;2022-07-23T02:27:05;23.10;99.90
790;DHT22;378;48.844;9.156;2022-07-23T02:29:32;23.00;99.90
790;DHT22;378;48.844;9.156;2022-07-23T02:32:00;23.00;99.90
790;DHT22;378;48.844;9.156;2022-07-23T02:34:27;22.90;99.90
790;DHT22;378;48.844;9.156;2022-07-23T02:36:54;22.80;99.90
790;DHT22;378;48.844;9.156;2022-07-23T02:39:20;22.80;99.90
790;DHT22;378;48.844;9.156;2022-07-23T02:41:47;22.80;99.90
790;DHT22;378;48.844;9.156;2022-07-23T02:44:14;22.80;99.90
790;DHT22;378;48.844;9.156;2022-07-23T02:46:41;22.70;99.90
790;DHT22;378;48.844;9.156;2022-07-23T02:49:09;22.70;99.90
790;DHT22;378;48.844;9.156;2022-07-23T02:51:36;22.60;99.90
790;DHT22;378;48.844;9.156;2022-07-23T02:54:03;22.60;99.90
790;DHT22;378;48.844;9.156;2022-07-23T02:56:30;22.60;99.90
790;DHT22;378;48.844;9.156;2022-07-23T02:58:57;22.60;99.90
790;DHT22;378;48.844;9.156;2022-07-23T03:01:23;22.60;99.90
790;DHT22;378;48.844;9.156;2022-07-23T03:03:50;22.60;99.90
790;DHT22;378;48.844;9.156;2022-07-23T03:06:19;22.60;99.90
790;DHT22;378;48.844;9.156;2022-07-23T03:08:45;22.60;99.90
790;DHT22;378;48.844;9.156;2022-07-23T03:11:12;22.60;99.90
790;DHT22;378;48.844;9.156;2022-07-23T03:13:40;22.70;99.90
790;DHT22;378;48.844;9.156;2022-07-23T03:16:07;22.60;99.90
790;DHT22;378;48.844;9.156;2022-07-23T03:18:34;22.70;99.90
790;DHT22;378;48.844;9.156;2022-07-23T03:21:01;22.70;99.90
790;DHT22;378;48.844;9.156;2022-07-23T03:23:29;22.70;99.90
790;DHT22;378;48.844;9.156;2022-07-23T03:25:56;22.70;99.90
790;DHT22;378;48.844;9.156;2022-07-23T03:28:23;22.70;99.90
790;DHT22;378;48.844;9.156;2022-07-23T03:30:50;22.70;99.90
790;DHT22;378;48.844;9.156;2022-07-23T03:33:18;22.60;99.90
790;DHT22;378;48.844;9.156;2022-07-23T03:35:46;22.60;99.90
790;DHT22;378;48.844;9.156;2022-07-23T03:38:13;22.50;99.90
790;DHT22;378;48.844;9.156;2022-07-23T03:40:42;22.40;99.90
790;DHT22;378;48.844;9.156;2022-07-23T03:43:09;22.30;99.90
790;DHT22;378;48.844;9.156;2022-07-23T03:45:36;22.20;99.90
790;DHT22;378;48.844;9.156;2022-07-23T03:48:02;22.20;99.90
790;DHT22;378;48.844;9.156;2022-07-23T03:50:29;22.10;99.90
790;DHT22;378;48.844;9.156;2022-07-23T03:52:56;22.00;99.90
790;DHT22;378;48.844;9.156;2022-07-23T03:55:23;22.00;99.90
790;DHT22;378;48.844;9.156;2022-07-23T03:57:51;21.90;99.90
790;DHT22;378;48.844;9.156;2022-07-23T04:00:18;21.90;99.90
790;DHT22;378;48.844;9.156;2022-07-23T04:02:45;21.80;99.90
790;DHT22;378;48.844;9.156;2022-07-23T04:05:12;21.70;99.90
790;DHT22;378;48.844;9.156;2022-07-23T04:07:39;21.80;99.90
790;DHT22;378;48.844;9.156;2022-07-23T04:10:06;21.80;99.90
790;DHT22;378;48.844;9.156;2022-07-23T04:12:33;21.80;99.90
790;DHT22;378;48.844;9.156;2022-07-23T04:15:03;21.80;99.90
790;DHT22;378;48.844;9.156;2022-07-23T04:17:30;21.90;99.90
790;DHT22;378;48.844;9.156;2022-07-23T04:19:57;22.00;99.90
790;DHT22;378;48.844;9.156;2022-07-23T04:22:23;22.00;99.90
790;DHT22;378;48.844;9.156;2022-07-23T04:24:50;22.00;99.90
790;DHT22;378;48.844;9.156;2022-07-23T04:27:17;22.10;99.90
790;DHT22;378;48.844;9.156;2022-07-23T04:29:44;22.10;99.90
790;DHT22;378;48.844;9.156;2022-07-23T04:32:12;22.30;99.90
790;DHT22;378;48.844;9.156;2022-07-23T04:34:39;22.30;99.90
790;DHT22;378;48.844;9.156;2022-07-23T04:37:06;22.40;99.90
790;DHT22;378;48.844;9.156;2022-07-23T04:39:33;22.50;99.90
790;DHT22;378;48.844;9.156;2022-07-23T04:42:00;22.50;99.90
790;DHT22;378;48.844;9.156;2022-07-23T04:44:27;22.50;99.90
790;DHT22;378;48.844;9.156;2022-07-23T04:46:54;22.50;99.90
790;DHT22;378;48.844;9.156;2022-07-23T04:49:22;22.50;99.90
790;DHT22;378;48.844;9.156;2022-07-23T04:51:49;22.60;99.90
790;DHT22;378;48.844;9.156;2022-07-23T04:54:15;22.60;99.90
790;DHT22;378;48.844;9.156;2022-07-23T04:56:43;22.70;99.90
790;DHT22;378;48.844;9.156;2022-07-23T04:59:10;22.70;99.90
790;DHT22;378;48.844;9.156;2022-07-23T05:01:36;22.80;99.90
790;DHT22;378;48.844;9.156;2022-07-23T05:04:03;22.80;99.90
790;DHT22;378;48.844;9.156;2022-07-23T05:06:32;22.80;99.90
790;DHT22;378;48.844;9.156;2022-07-23T05:08:59;23.00;99.90
790;DHT22;378;48.844;9.156;2022-07-23T05:11:26;23.10;99.90
790;DHT22;378;48.844;9.156;2022-07-23T05:13:53;23.20;99.90
790;DHT22;378;48.844;9.156;2022-07-23T05:16:19;23.30;99.90
790;DHT22;378;48.844;9.156;2022-07-23T05:18:46;23.70;99.90
790;DHT22;378;48.844;9.156;2022-07-23T05:21:13;24.50;99.90
790;DHT22;378;48.844;9.156;2022-07-23T05:23:41;25.30;99.90
790;DHT22;378;48.844;9.156;2022-07-23T05:26:08;25.90;99.90
790;DHT22;378;48.844;9.156;2022-07-23T05:28:35;26.70;99.90
790;DHT22;378;48.844;9.156;2022-07-23T05:31:02;27.20;99.90
790;DHT22;378;48.844;9.156;2022-07-23T05:33:29;27.30;99.90
790;DHT22;378;48.844;9.156;2022-07-23T05:36:00;27.10;99.90
790;DHT22;378;48.844;9.156;2022-07-23T05:38:27;26.80;99.90
790;DHT22;378;48.844;9.156;2022-07-23T05:40:55;26.40;99.90
790;DHT22;378;48.844;9.156;2022-07-23T05:43:22;26.20;99.90
790;DHT22;378;48.844;9.156;2022-07-23T05:45:49;26.00;99.90
790;DHT22;378;48.844;9.156;2022-07-23T05:48:16;25.80;99.90
790;DHT22;378;48.844;9.156;2022-07-23T05:50:43;25.60;99.90
790;DHT22;378;48.844;9.156;2022-07-23T05:53:10;25.50;99.90
790;DHT22;378;48.844;9.156;2022-07-23T05:55:36;25.40;99.90
790;DHT22;378;48.844;9.156;2022-07-23T05:58:05;25.30;99.90
790;DHT22;378;48.844;9.156;2022-07-23T06:00:32;25.10;99.90
790;DHT22;378;48.844;9.156;2022-07-23T06:02:59;25.00;99.90
790;DHT22;378;48.844;9.156;2022-07-23T06:05:26;24.80;99.90
790;DHT22;378;48.844;9.156;2022-07-23T06:07:53;24.60;99.90
790;DHT22;378;48.844;9.156;2022-07-23T06:10:20;24.50;99.90
790;DHT22;378;48.844;9.156;2022-07-23T06:12:47;24.30;99.90
790;DHT22;378;48.844;9.156;2022-07-23T06:15:15;24.20;99.90
790;DHT22;378;48.844;9.156;2022-07-23T06:17:42;24.10;99.90
790;DHT22;378;48.844;9.156;2022-07-23T06:20:09;24.00;99.90
790;DHT22;378;48.844;9.156;2022-07-23T06:22:37;24.00;99.90
790;DHT22;378;48.844;9.156;2022-07-23T06:25:04;24.30;99.90
790;DHT22;378;48.844;9.156;2022-07-23T06:27:31;25.00;99.90
790;DHT22;378;48.844;9.156;2022-07-23T06:29:58;25.80;99.90
790;DHT22;378;48.844;9.156;2022-07-23T06:32:26;26.70;99.90
790;DHT22;378;48.844;9.156;2022-07-23T06:34:53;27.50;99.90
790;DHT22;378;48.844;9.156;2022-07-23T06:37:20;27.90;99.90
790;DHT22;378;48.844;9.156;2022-07-23T06:39:47;28.00;99.90
790;DHT22;378;48.844;9.156;2022-07-23T06:42:14;27.50;99.90
790;DHT22;378;48.844;9.156;2022-07-23T06:44:41;27.20;99.90
790;DHT22;378;48.844;9.156;2022-07-23T06:47:08;26.70;99.90
790;DHT22;378;48.844;9.156;2022-07-23T06:49:36;26.50;99.90
790;DHT22;378;48.844;9.156;2022-07-23T06:52:03;26.20;99.90
790;DHT22;378;48.844;9.156;2022-07-23T06:54:30;25.90;99.90
790;DHT22;378;48.844;9.156;2022-07-23T06:56:57;25.70;99.90
790;DHT22;378;48.844;9.156;2022-07-23T06:59:24;25.40;99.90
790;DHT22;378;48.844;9.156;2022-07-23T07:01:51;25.00;99.90
790;DHT22;378;48.844;9.156;2022-07-23T07:04:18;24.60;99.90
790;DHT22;378;48.844;9.156;2022-07-23T07:06:46;24.20;99.90
790;DHT22;378;48.844;9.156;2022-07-23T07:09:13;23.80;99.90
790;DHT22;378;48.844;9.156;2022-07-23T07:11:40;23.60;99.90
790;DHT22;378;48.844;9.156;2022-07-23T07:14:07;23.50;99.90
790;DHT22;378;48.844;9.156;2022-07-23T07:16:34;23.50;99.90
790;DHT22;378;48.844;9.156;2022-07-23T07:19:00;23.40;99.90
790;DHT22;378;48.844;9.156;2022-07-23T07:21:27;23.20;99.90
790;DHT22;378;48.844;9.156;2022-07-23T07:23:55;23.20;99.90
790;DHT22;378;48.844;9.156;2022-07-23T07:26:22;23.10;99.90
790;DHT22;378;48.844;9.156;2022-07-23T07:28:49;22.80;99.90
790;DHT22;378;48.844;9.156;2022-07-23T07:31:16;22.40;99.90
790;DHT22;378;48.844;9.156;2022-07-23T07:33:43;21.90;99.90
790;DHT22;378;48.844;9.156;2022-07-23T07:36:10;21.40;99.90
790;DHT22;378;48.844;9.156;2022-07-23T07:38:37;21.00;99.90
790;DHT22;378;48.844;9.156;2022-07-23T07:41:05;20.80;99.90
790;DHT22;378;48.844;9.156;2022-07-23T07:43:33;20.70;99.90
790;DHT22;378;48.844;9.156;2022-07-23T07:46:00;20.80;99.90
790;DHT22;378;48.844;9.156;2022-07-23T07:48:27;21.10;99.90
790;DHT22;378;48.844;9.156;2022-07-23T07:50:54;21.50;99.90
790;DHT22;378;48.844;9.156;2022-07-23T07:53:21;21.80;99.90
790;DHT22;378;48.844;9.156;2022-07-23T07:55:47;22.10;99.90
790;DHT22;378;48.844;9.156;2022-07-23T07:58:16;22.30;99.90
790;DHT22;378;48.844;9.156;2022-07-23T08:00:43;22.50;99.90
790;DHT22;378;48.844;9.156;2022-07-23T08:03:09;22.50;99.90
790;DHT22;378;48.844;9.156;2022-07-23T08:05:36;22.50;99.90
790;DHT22;378;48.844;9.156;2022-07-23T08:08:04;22.50;99.90
790;DHT22;378;48.844;9.156;2022-07-23T08:10:31;22.60;99.90
790;DHT22;378;48.844;9.156;2022-07-23T08:12:58;22.90;99.90
790;DHT22;378;48.844;9.156;2022-07-23T08:15:28;23.10;99.90
790;DHT22;378;48.844;9.156;2022-07-23T08:17:57;23.30;99.90
790;DHT22;378;48.844;9.156;2022-07-23T08:20:27;23.40;99.90
790;DHT22;378;48.844;9.156;2022-07-23T08:22:55;23.20;99.90
790;DHT22;378;48.844;9.156;2022-07-23T08:25:23;22.90;99.90
790;DHT22;378;48.844;9.156;2022-07-23T08:27:50;23.00;99.90
790;DHT22;378;48.844;9.156;2022-07-23T08:30:18;23.10;99.90
790;DHT22;378;48.844;9.156;2022-07-23T08:32:52;23.40;99.90
790;DHT22;378;48.844;9.156;2022-07-23T08:35:24;24.10;99.90
790;DHT22;378;48.844;9.156;2022-07-23T08:37:51;24.60;99.90
790;DHT22;378;48.844;9.156;2022-07-23T08:40:18;24.80;99.90
790;DHT22;378;48.844;9.156;2022-07-23T08:42:47;25.00;99.90
790;DHT22;378;48.844;9.156;2022-07-23T08:45:18;25.30;99.90
790;DHT22;378;48.844;9.156;2022-07-23T08:47:50;25.80;99.90
790;DHT22;378;48.844;9.156;2022-07-23T08:50:17;26.20;99.90
790;DHT22;378;48.844;9.156;2022-07-23T08:52:44;26.90;99.90
790;DHT22;378;48.844;9.156;2022-07-23T08:55:12;27.70;99.90
790;DHT22;378;48.844;9.156;2022-07-23T08:57:39;28.60;99.90
790;DHT22;378;48.844;9.156;2022-07-23T09:00:07;29.30;99.90
790;DHT22;378;48.844;9.156;2022-07-23T09:02:41;30.00;99.90
790;DHT22;378;48.844;9.156;2022-07-23T09:05:12;30.30;99.90
790;DHT22;378;48.844;9.156;2022-07-23T09:08:09;30.80;99.90
790;DHT22;378;48.844;9.156;2022-07-23T09:10:53;31.20;99.90
790;DHT22;378;48.844;9.156;2022-07-23T09:13:29;30.90;99.90
790;DHT22;378;48.844;9.156;2022-07-23T09:15:57;30.10;99.90
790;DHT22;378;48.844;9.156;2022-07-23T09:18:37;29.50;99.90
790;DHT22;378;48.844;9.156;2022-07-23T09:21:11;29.20;99.90
790;DHT22;378;48.844;9.156;2022-07-23T09:23:40;28.90;99.90
790;DHT22;378;48.844;9.156;2022-07-23T09:26:24;29.10;99.90
790;DHT22;378;48.844;9.156;2022-07-23T09:28:55;29.20;99.90
790;DHT22;378;48.844;9.156;2022-07-23T09:31:23;29.80;99.90
790;DHT22;378;48.844;9.156;2022-07-23T09:33:50;30.20;99.90
790;DHT22;378;48.844;9.156;2022-07-23T09:36:27;30.50;99.90
790;DHT22;378;48.844;9.156;2022-07-23T09:38:54;30.70;99.90
790;DHT22;378;48.844;9.156;2022-07-23T09:41:21;31.30;99.90
790;DHT22;378;48.844;9.156;2022-07-23T09:43:54;31.30;99.90
790;DHT22;378;48.844;9.156;2022-07-23T09:46:23;31.50;99.90
790;DHT22;378;48.844;9.156;2022-07-23T09:48:51;31.30;99.90
790;DHT22;378;48.844;9.156;2022-07-23T09:51:18;31.40;99.90
790;DHT22;378;48.844;9.156;2022-07-23T09:53:49;31.10;99.90
790;DHT22;378;48.844;9.156;2022-07-23T09:56:17;30.90;99.90
790;DHT22;378;48.844;9.156;2022-07-23T09:58:49;31.20;99.90
790;DHT22;378;48.844;9.156;2022-07-23T10:01:16;31.60;99.90
790;DHT22;378;48.844;9.156;2022-07-23T10:03:43;31.90;99.90
790;DHT22;378;48.844;9.156;2022-07-23T10:06:13;32.20;99.90
790;DHT22;378;48.844;9.156;2022-07-23T10:08:41;32.40;99.90
790;DHT22;378;48.844;9.156;2022-07-23T10:11:11;32.60;99.80
790;DHT22;378;48.844;9.156;2022-07-23T10:13:39;32.80;98.50
790;DHT22;378;48.844;9.156;2022-07-23T10:16:29;33.00;98.60
790;DHT22;378;48.844;9.156;2022-07-23T10:18:56;33.30;97.20
790;DHT22;378;48.844;9.156;2022-07-23T10:21:26;33.10;97.50
790;DHT22;378;48.844;9.156;2022-07-23T10:24:04;33.00;98.20
790;DHT22;378;48.844;9.156;2022-07-23T10:26:44;32.90;97.50
790;DHT22;378;48.844;9.156;2022-07-23T10:29:22;32.70;97.60
790;DHT22;378;48.844;9.156;2022-07-23T10:31:56;32.60;99.00
790;DHT22;378;48.844;9.156;2022-07-23T10:34:35;32.70;98.70
790;DHT22;378;48.844;9.156;2022-07-23T10:37:11;32.80;99.10
790;DHT22;378;48.844;9.156;2022-07-23T10:39:41;33.10;99.00
790;DHT22;378;48.844;9.156;2022-07-23T10:42:10;33.50;99.00
790;DHT22;378;48.844;9.156;2022-07-23T10:44:42;33.70;98.90
790;DHT22;378;48.844;9.156;2022-07-23T10:47:10;33.70;98.40
790;DHT22;378;48.844;9.156;2022-07-23T10:50:17;33.30;98.00
790;DHT22;378;48.844;9.156;2022-07-23T10:53:15;33.30;97.80
790;DHT22;378;48.844;9.156;2022-07-23T10:55:48;33.50;97.60
790;DHT22;378;48.844;9.156;2022-07-23T10:58:22;33.10;98.40
790;DHT22;378;48.844;9.156;2022-07-23T11:00:49;33.40;98.50
790;DHT22;378;48.844;9.156;2022-07-23T11:03:31;33.90;97.40
790;DHT22;378;48.844;9.156;2022-07-23T11:06:04;34.60;95.80
790;DHT22;378;48.844;9.156;2022-07-23T11:08:31;35.20;94.30
790;DHT22;378;48.844;9.156;2022-07-23T11:11:09;34.70;94.20
790;DHT22;378;48.844;9.156;2022-07-23T11:13:50;35.00;94.60
790;DHT22;378;48.844;9.156;2022-07-23T11:16:24;35.40;93.80
790;DHT22;378;48.844;9.156;2022-07-23T11:21:47;36.20;92.10
790;DHT22;378;48.844;9.156;2022-07-23T11:24:16;36.50;91.30
790;DHT22;378;48.844;9.156;2022-07-23T11:27:01;36.80;90.60
790;DHT22;378;48.844;9.156;2022-07-23T11:29:46;36.40;90.10
790;DHT22;378;48.844;9.156;2022-07-23T11:32:34;36.10;91.00
790;DHT22;378;48.844;9.156;2022-07-23T11:35:21;35.80;91.30
790;DHT22;378;48.844;9.156;2022-07-23T11:37:49;35.70;90.80
790;DHT22;378;48.844;9.156;2022-07-23T11:40:20;35.90;90.70
790;DHT22;378;48.844;9.156;2022-07-23T11:42:56;36.10;90.20
790;DHT22;378;48.844;9.156;2022-07-23T11:45:29;36.80;90.60
790;DHT22;378;48.844;9.156;2022-07-23T11:47:57;36.80;90.40
790;DHT22;378;48.844;9.156;2022-07-23T11:50:24;37.30;90.30
790;DHT22;378;48.844;9.156;2022-07-23T11:52:51;37.70;89.90
790;DHT22;378;48.844;9.156;2022-07-23T11:55:19;37.50;89.20
790;DHT22;378;48.844;9.156;2022-07-23T11:57:46;37.30;89.80
790;DHT22;378;48.844;9.156;2022-07-23T12:00:16;37.40;90.00
790;DHT22;378;48.844;9.156;2022-07-23T12:02:46;37.80;88.20
790;DHT22;378;48.844;9.156;2022-07-23T12:05:14;38.20;85.90
790;DHT22;378;48.844;9.156;2022-07-23T12:07:43;38.70;83.50
790;DHT22;378;48.844;9.156;2022-07-23T12:10:13;39.10;82.20
790;DHT22;378;48.844;9.156;2022-07-23T12:12:42;39.30;81.20
790;DHT22;378;48.844;9.156;2022-07-23T12:15:11;39.10;81.20
790;DHT22;378;48.844;9.156;2022-07-23T12:17:41;38.90;81.50
790;DHT22;378;48.844;9.156;2022-07-23T12:20:12;39.50;81.20
790;DHT22;378;48.844;9.156;2022-07-23T12:22:41;39.80;80.10
790;DHT22;378;48.844;9.156;2022-07-23T12:25:10;39.20;79.70
790;DHT22;378;48.844;9.156;2022-07-23T12:27:37;39.10;79.70
790;DHT22;378;48.844;9.156;2022-07-23T12:30:22;39.80;80.20
790;DHT22;378;48.844;9.156;2022-07-23T12:32:51;39.80;77.60
790;DHT22;378;48.844;9.156;2022-07-23T12:35:20;40.20;77.30
790;DHT22;378;48.844;9.156;2022-07-23T12:37:50;40.30;75.90
790;DHT22;378;48.844;9.156;2022-07-23T12:40:23;40.10;76.70
790;DHT22;378;48.844;9.156;2022-07-23T12:42:52;40.50;75.90
790;DHT22;378;48.844;9.156;2022-07-23T12:45:20;40.60;75.90
790;DHT22;378;48.844;9.156;2022-07-23T12:47:58;40.90;75.80
790;DHT22;378;48.844;9.156;2022-07-23T12:50:38;41.30;74.50
790;DHT22;378;48.844;9.156;2022-07-23T12:53:11;41.50;74.20
790;DHT22;378;48.844;9.156;2022-07-23T12:55:47;40.90;74.00
790;DHT22;378;48.844;9.156;2022-07-23T12:58:16;40.50;73.50
790;DHT22;378;48.844;9.156;2022-07-23T13:00:57;39.80;74.40
790;DHT22;378;48.844;9.156;2022-07-23T13:03:26;39.70;74.50
790;DHT22;378;48.844;9.156;2022-07-23T13:05:56;40.00;74.90
790;DHT22;378;48.844;9.156;2022-07-23T13:08:23;39.70;74.40
790;DHT22;378;48.844;9.156;2022-07-23T13:10:51;39.40;75.70
790;DHT22;378;48.844;9.156;2022-07-23T13:13:21;39.00;75.70
790;DHT22;378;48.844;9.156;2022-07-23T13:15:48;39.00;76.70
790;DHT22;378;48.844;9.156;2022-07-23T13:18:15;39.10;76.60
790;DHT22;378;48.844;9.156;2022-07-23T13:20:43;38.70;77.00
790;DHT22;378;48.844;9.156;2022-07-23T13:23:11;38.00;77.20
790;DHT22;378;48.844;9.156;2022-07-23T13:25:38;37.80;77.70
790;DHT22;378;48.844;9.156;2022-07-23T13:28:05;38.00;78.10
790;DHT22;378;48.844;9.156;2022-07-23T13:30:32;38.10;78.00
790;DHT22;378;48.844;9.156;2022-07-23T13:33:00;38.60;78.30
790;DHT22;378;48.844;9.156;2022-07-23T13:35:27;39.20;76.40
790;DHT22;378;48.844;9.156;2022-07-23T13:37:54;39.90;75.80
790;DHT22;378;48.844;9.156;2022-07-23T13:40:23;40.00;75.30
790;DHT22;378;48.844;9.156;2022-07-23T13:42:49;40.30;74.60
790;DHT22;378;48.844;9.156;2022-07-23T13:45:17;40.90;74.60
790;DHT22;378;48.844;9.156;2022-07-23T13:47:44;41.80;73.60
790;DHT22;378;48.844;9.156;2022-07-23T13:50:11;42.40;71.20
790;DHT22;378;48.844;9.156;2022-07-23T13:52:38;42.20;70.10
790;DHT22;378;48.844;9.156;2022-07-23T13:55:06;42.90;69.00
790;DHT22;378;48.844;9.156;2022-07-23T13:57:34;43.10;68.60
790;DHT22;378;48.844;9.156;2022-07-23T14:00:02;42.90;68.10
790;DHT22;378;48.844;9.156;2022-07-23T14:02:30;42.50;69.00
790;DHT22;378;48.844;9.156;2022-07-23T14:04:57;42.30;67.60
790;DHT22;378;48.844;9.156;2022-07-23T14:07:23;42.50;66.90
790;DHT22;378;48.844;9.156;2022-07-23T14:09:50;42.80;66.80
790;DHT22;378;48.844;9.156;2022-07-23T14:12:17;42.70;65.90
790;DHT22;378;48.844;9.156;2022-07-23T14:14:46;43.20;65.90
790;DHT22;378;48.844;9.156;2022-07-23T14:17:13;43.90;64.70
790;DHT22;378;48.844;9.156;2022-07-23T14:19:40;44.30;63.60
790;DHT22;378;48.844;9.156;2022-07-23T14:22:07;44.40;62.50
790;DHT22;378;48.844;9.156;2022-07-23T14:24:34;43.50;61.30
790;DHT22;378;48.844;9.156;2022-07-23T14:27:02;43.20;62.30
790;DHT22;378;48.844;9.156;2022-07-23T14:29:30;43.70;63.30
790;DHT22;378;48.844;9.156;2022-07-23T14:31:58;44.50;62.40
790;DHT22;378;48.844;9.156;2022-07-23T14:34:26;44.80;60.40
790;DHT22;378;48.844;9.156;2022-07-23T14:36:53;44.50;60.20
790;DHT22;378;48.844;9.156;2022-07-23T14:39:20;44.70;60.30
790;DHT22;378;48.844;9.156;2022-07-23T14:41:59;45.20;59.20
790;DHT22;378;48.844;9.156;2022-07-23T14:44:26;45.50;59.10
790;DHT22;378;48.844;9.156;2022-07-23T14:46:53;45.70;58.50
790;DHT22;378;48.844;9.156;2022-07-23T14:49:21;44.60;58.10
790;DHT22;378;48.844;9.156;2022-07-23T14:51:48;45.10;58.60
790;DHT22;378;48.844;9.156;2022-07-23T14:54:15;44.60;59.00
790;DHT22;378;48.844;9.156;2022-07-23T14:56:42;43.60;58.90
790;DHT22;378;48.844;9.156;2022-07-23T14:59:09;42.30;60.60
790;DHT22;378;48.844;9.156;2022-07-23T15:01:36;41.80;62.20
790;DHT22;378;48.844;9.156;2022-07-23T15:04:04;41.60;62.00
790;DHT22;378;48.844;9.156;2022-07-23T15:06:32;42.10;61.30
790;DHT22;378;48.844;9.156;2022-07-23T15:08:59;42.20;61.80
790;DHT22;378;48.844;9.156;2022-07-23T15:11:26;42.40;60.00
790;DHT22;378;48.844;9.156;2022-07-23T15:13:54;42.10;60.60
790;DHT22;378;48.844;9.156;2022-07-23T15:16:21;41.10;61.00
790;DHT22;378;48.844;9.156;2022-07-23T15:18:51;39.90;63.30
790;DHT22;378;48.844;9.156;2022-07-23T15:21:18;38.90;64.60
790;DHT22;378;48.844;9.156;2022-07-23T15:23:46;37.80;66.30
790;DHT22;378;48.844;9.156;2022-07-23T15:26:13;38.00;66.60
790;DHT22;378;48.844;9.156;2022-07-23T15:28:41;38.30;66.70
790;DHT22;378;48.844;9.156;2022-07-23T15:31:08;38.70;66.10
790;DHT22;378;48.844;9.156;2022-07-23T15:33:35;38.80;66.10
790;DHT22;378;48.844;9.156;2022-07-23T15:36:03;38.50;65.90
790;DHT22;378;48.844;9.156;2022-07-23T15:38:30;37.90;66.60
790;DHT22;378;48.844;9.156;2022-07-23T15:40:59;38.40;66.60
790;DHT22;378;48.844;9.156;2022-07-23T15:43:26;39.10;66.30
790;DHT22;378;48.844;9.156;2022-07-23T15:45:54;39.40;64.40
790;DHT22;378;48.844;9.156;2022-07-23T15:48:21;39.80;63.60
790;DHT22;378;48.844;9.156;2022-07-23T15:50:48;40.60;63.70
790;DHT22;378;48.844;9.156;2022-07-23T15:53:15;40.90;64.00
790;DHT22;378;48.844;9.156;2022-07-23T15:55:42;41.10;63.40
790;DHT22;378;48.844;9.156;2022-07-23T15:58:12;40.80;62.60
790;DHT22;378;48.844;9.156;2022-07-23T16:00:39;39.10;63.00
790;DHT22;378;48.844;9.156;2022-07-23T16:03:06;37.50;65.90
790;DHT22;378;48.844;9.156;2022-07-23T16:05:33;37.50;67.00
790;DHT22;378;48.844;9.156;2022-07-23T16:08:01;38.00;66.60
790;DHT22;378;48.844;9.156;2022-07-23T16:10:29;37.10;67.10
790;DHT22;378;48.844;9.156;2022-07-23T16:12:56;35.70;69.50
790;DHT22;378;48.844;9.156;2022-07-23T16:15:24;35.70;71.30
790;DHT22;378;48.844;9.156;2022-07-23T16:17:51;37.20;70.80
790;DHT22;378;48.844;9.156;2022-07-23T16:20:19;37.60;69.60
790;DHT22;378;48.844;9.156;2022-07-23T16:22:47;37.30;69.80
790;DHT22;378;48.844;9.156;2022-07-23T16:25:14;37.20;70.50
790;DHT22;378;48.844;9.156;2022-07-23T16:27:41;36.90;71.30
790;DHT22;378;48.844;9.156;2022-07-23T16:30:10;36.70;71.40
790;DHT22;378;48.844;9.156;2022-07-23T16:32:39;37.20;71.80
790;DHT22;378;48.844;9.156;2022-07-23T16:35:07;37.20;70.80
790;DHT22;378;48.844;9.156;2022-07-23T16:37:35;36.10;72.60
790;DHT22;378;48.844;9.156;2022-07-23T16:40:04;34.90;76.00
790;DHT22;378;48.844;9.156;2022-07-23T16:42:31;33.80;78.60
790;DHT22;378;48.844;9.156;2022-07-23T16:44:58;33.10;79.10
790;DHT22;378;48.844;9.156;2022-07-23T16:47:25;32.30;81.90